createdAt,value
2023-03-15T00:03:39.897Z,88.60
2023-03-15T00:07:25.779Z,88.70
2023-03-15T00:11:07.594Z,88.90
2023-03-15T00:14:50.241Z,89.00
2023-03-15T00:18:32.158Z,88.90
2023-03-15T00:22:13.881Z,88.90
2023-03-15T00:25:55.670Z,88.70
2023-03-15T00:29:37.515Z,89.00
2023-03-15T00:33:19.229Z,89.20
2023-03-15T00:37:01.124Z,89.00
2023-03-15T00:40:42.864Z,89.20
2023-03-15T00:44:25.048Z,89.40
2023-03-15T00:48:06.777Z,89.70
2023-03-15T00:51:48.473Z,89.80
2023-03-15T00:55:30.352Z,90.10
2023-03-15T00:59:12.092Z,89.90
2023-03-15T01:02:54.760Z,90.00
2023-03-15T01:06:36.644Z,90.10
2023-03-15T01:10:18.724Z,90.00
2023-03-15T01:14:00.781Z,90.10
2023-03-15T01:17:42.875Z,90.00
2023-03-15T01:21:25.285Z,90.10
2023-03-15T01:25:07.928Z,90.10
2023-03-15T01:28:50.251Z,90.10
2023-03-15T01:32:32.025Z,90.20
2023-03-15T01:36:14.420Z,90.10
2023-03-15T01:39:56.112Z,90.00
2023-03-15T01:43:37.863Z,89.90
2023-03-15T01:47:20.511Z,89.80
2023-03-15T01:51:16.612Z,90.00
2023-03-15T01:55:07.693Z,90.30
2023-03-15T01:58:52.352Z,90.20
2023-03-15T02:02:34.105Z,90.60
2023-03-15T02:06:19.291Z,90.10
2023-03-15T02:10:08.548Z,90.30
2023-03-15T02:13:51.685Z,90.40
2023-03-15T02:17:40.963Z,90.00
2023-03-15T02:21:57.700Z,90.30
2023-03-15T02:26:02.897Z,91.00
2023-03-15T02:29:44.695Z,90.90
2023-03-15T02:33:36.558Z,90.30
2023-03-15T02:37:18.271Z,90.80
2023-03-15T02:41:00.401Z,90.50
2023-03-15T02:44:44.859Z,90.70
2023-03-15T02:48:27.208Z,90.90
2023-03-15T02:52:09.416Z,90.90
2023-03-15T02:55:51.824Z,90.80
2023-03-15T02:59:33.573Z,90.80
2023-03-15T03:03:15.342Z,91.10
2023-03-15T03:06:57.192Z,90.80
2023-03-15T03:10:39.009Z,90.80
2023-03-15T03:14:23.856Z,90.80
2023-03-15T03:18:05.762Z,90.70
2023-03-15T03:21:47.724Z,90.60
2023-03-15T03:25:29.417Z,90.60
2023-03-15T03:29:17.055Z,90.50
2023-03-15T03:32:58.893Z,91.00
2023-03-15T03:36:40.840Z,90.90
2023-03-15T03:40:22.747Z,90.70
2023-03-15T03:44:04.741Z,90.80
2023-03-15T03:47:46.546Z,90.80
2023-03-15T03:51:28.268Z,90.80
2023-03-15T03:55:13.680Z,90.70
2023-03-15T03:58:55.548Z,90.80
2023-03-15T04:02:37.526Z,90.70
2023-03-15T04:06:19.482Z,90.60
2023-03-15T04:10:02.423Z,90.70
2023-03-15T04:13:45.509Z,90.90
2023-03-15T04:17:27.320Z,90.80
2023-03-15T04:21:10.879Z,90.80
2023-03-15T04:24:52.928Z,90.80
2023-03-15T04:28:34.724Z,90.90
2023-03-15T04:32:18.093Z,90.90
2023-03-15T04:36:00.036Z,91.10
2023-03-15T04:39:42.800Z,91.20
2023-03-15T04:43:24.743Z,91.20
2023-03-15T04:47:06.607Z,91.40
2023-03-15T04:50:48.419Z,91.40
2023-03-15T04:54:30.388Z,91.50
2023-03-15T04:58:12.191Z,91.60
2023-03-15T05:01:54.025Z,91.80
2023-03-15T05:05:35.744Z,91.90
2023-03-15T05:09:19.325Z,92.00
2023-03-15T05:13:01.399Z,92.20
2023-03-15T05:16:43.328Z,92.30
2023-03-15T05:20:26.080Z,92.40
2023-03-15T05:24:07.982Z,92.50
2023-03-15T05:27:49.763Z,92.40
2023-03-15T05:31:37.006Z,92.40
2023-03-15T05:35:19.094Z,92.40
2023-03-15T05:39:03.310Z,92.40
2023-03-15T05:42:45.069Z,92.40
2023-03-15T05:46:27.145Z,92.30
2023-03-15T05:50:09.464Z,92.30
2023-03-15T05:53:51.184Z,92.40
2023-03-15T05:57:32.891Z,92.50
2023-03-15T06:01:15.754Z,92.60
2023-03-15T06:04:57.481Z,92.90
2023-03-15T06:08:39.212Z,93.10
2023-03-15T06:12:20.896Z,93.20
2023-03-15T06:16:02.717Z,93.20
2023-03-15T06:19:44.517Z,93.10
2023-03-15T06:23:26.374Z,93.10
2023-03-15T06:27:08.341Z,93.00
2023-03-15T06:30:50.144Z,92.90
2023-03-15T06:34:31.933Z,92.80
2023-03-15T06:38:15.150Z,93.10
2023-03-15T06:41:58.520Z,92.90
2023-03-15T06:46:06.284Z,93.00
2023-03-15T06:49:50.416Z,93.50
2023-03-15T06:53:32.316Z,93.20
2023-03-15T06:57:14.094Z,93.60
2023-03-15T07:00:55.861Z,93.30
2023-03-15T07:04:37.724Z,93.40
2023-03-15T07:08:20.109Z,93.60
2023-03-15T07:12:01.990Z,93.80
2023-03-15T07:15:43.836Z,93.90
2023-03-15T07:19:25.672Z,94.00
2023-03-15T07:23:07.420Z,94.10
2023-03-15T07:26:49.184Z,94.10
2023-03-15T07:30:30.889Z,94.10
2023-03-15T07:34:12.676Z,94.20
2023-03-15T07:37:54.393Z,94.20
2023-03-15T07:41:36.892Z,94.40
2023-03-15T07:45:18.705Z,94.50
2023-03-15T07:49:00.623Z,94.70
2023-03-15T07:52:42.319Z,94.80
2023-03-15T07:56:24.066Z,94.80
2023-03-15T08:00:06.901Z,94.80
2023-03-15T08:03:48.587Z,94.90
2023-03-15T08:07:31.022Z,94.90
2023-03-15T08:11:13.147Z,95.10
2023-03-15T08:14:54.890Z,95.30
2023-03-15T08:18:36.698Z,95.40
2023-03-15T08:22:18.456Z,95.60
2023-03-15T08:26:00.623Z,95.70
2023-03-15T08:29:42.337Z,95.80
2023-03-15T08:33:24.604Z,95.90
2023-03-15T08:37:06.378Z,96.00
2023-03-15T08:40:48.094Z,96.00
2023-03-15T08:44:29.832Z,95.90
2023-03-15T08:48:14.408Z,96.00
2023-03-15T08:51:56.184Z,96.00
2023-03-15T08:55:38.833Z,96.10
2023-03-15T08:59:31.460Z,96.20
2023-03-15T09:03:15.983Z,96.20
2023-03-15T09:06:57.772Z,96.30
2023-03-15T09:10:39.834Z,96.70
2023-03-15T09:14:21.557Z,96.50
2023-03-15T09:18:03.297Z,96.50
2023-03-15T09:21:47.083Z,96.50
2023-03-15T09:25:29.020Z,96.50
2023-03-15T09:29:10.782Z,96.60
2023-03-15T09:32:52.701Z,96.60
2023-03-15T09:36:34.543Z,96.60
2023-03-15T09:40:22.768Z,96.60
2023-03-15T09:44:26.311Z,96.50
2023-03-15T09:48:32.273Z,96.30
2023-03-15T09:52:29.335Z,96.30
2023-03-15T09:56:24.918Z,96.30
2023-03-15T10:00:12.072Z,96.30
2023-03-15T10:03:55.197Z,96.50
2023-03-15T10:07:37.028Z,96.30
2023-03-15T10:11:45.650Z,96.20
2023-03-15T10:15:44.990Z,95.50
2023-03-15T10:19:49.943Z,96.10
2023-03-15T10:23:55.526Z,95.30
2023-03-15T10:27:51.799Z,95.20
2023-03-15T10:31:44.517Z,95.20
2023-03-15T10:35:26.760Z,95.60
2023-03-15T10:39:11.208Z,95.70
2023-03-15T10:42:54.076Z,95.60
2023-03-15T10:46:35.840Z,95.70
2023-03-15T10:50:29.918Z,95.80
2023-03-15T10:54:17.987Z,95.30
2023-03-15T10:58:14.780Z,96.00
2023-03-15T11:02:11.698Z,95.70
2023-03-15T11:05:56.932Z,95.10
2023-03-15T11:09:41.713Z,95.60
2023-03-15T11:13:32.814Z,95.60
2023-03-15T11:17:22.471Z,95.40
2023-03-15T11:21:09.815Z,95.30
2023-03-15T11:24:54.580Z,95.30
2023-03-15T11:28:37.523Z,95.30
2023-03-15T11:32:25.777Z,95.30
2023-03-15T11:36:12.994Z,95.20
2023-03-15T11:40:12.008Z,95.20
2023-03-15T11:44:02.618Z,95.10
2023-03-15T11:47:49.413Z,95.10
2023-03-15T11:51:36.292Z,95.00
2023-03-15T11:55:27.971Z,95.10
2023-03-15T11:59:13.592Z,95.10
2023-03-15T12:03:19.948Z,95.30
2023-03-15T12:07:12.822Z,95.10
2023-03-15T12:10:54.606Z,94.90
2023-03-15T12:14:37.662Z,95.20
2023-03-15T12:18:25.726Z,95.20
2023-03-15T12:22:16.267Z,95.10
2023-03-15T12:26:05.893Z,94.90
2023-03-15T12:29:57.609Z,94.90
2023-03-15T12:33:47.203Z,95.00
2023-03-15T12:37:42.373Z,94.70
2023-03-15T12:41:38.657Z,94.40
2023-03-15T12:45:20.532Z,94.10
2023-03-15T12:49:18.423Z,94.70
2023-03-15T12:53:02.286Z,94.30
2023-03-15T12:56:50.827Z,94.60
2023-03-15T13:00:33.374Z,94.70
2023-03-15T13:04:15.441Z,94.70
2023-03-15T13:08:09.259Z,94.70
2023-03-15T13:12:12.045Z,94.60
2023-03-15T13:16:16.777Z,94.40
2023-03-15T13:20:25.028Z,94.50
2023-03-15T13:24:17.493Z,93.90
2023-03-15T13:28:10.459Z,94.10
2023-03-15T13:32:23.056Z,94.20
2023-03-15T13:36:15.115Z,94.40
2023-03-15T13:40:13.707Z,94.40
2023-03-15T13:43:58.366Z,94.00
2023-03-15T13:47:44.913Z,94.20
2023-03-15T13:51:34.906Z,94.20
2023-03-15T13:55:22.383Z,94.00
2023-03-15T13:59:05.941Z,93.90
2023-03-15T14:03:01.728Z,93.90
2023-03-15T14:06:45.761Z,93.50
2023-03-15T14:10:38.064Z,93.90
2023-03-15T14:14:25.190Z,93.70
2023-03-15T14:18:07.328Z,93.70
2023-03-15T14:21:58.107Z,93.70
2023-03-15T14:25:40.222Z,93.70
2023-03-15T14:29:39.771Z,93.90
2023-03-15T14:33:30.891Z,93.60
2023-03-15T14:37:35.243Z,93.60
2023-03-15T14:41:39.216Z,93.80
2023-03-15T14:45:24.777Z,93.60
2023-03-15T14:49:06.589Z,94.00
2023-03-15T14:52:49.994Z,93.80
2023-03-15T14:56:31.878Z,93.80
2023-03-15T15:00:18.637Z,93.80
2023-03-15T15:04:03.008Z,93.70
2023-03-15T15:07:44.826Z,93.70
2023-03-15T15:11:27.356Z,93.70
2023-03-15T15:15:18.111Z,93.90
2023-03-15T15:19:02.249Z,93.90
2023-03-15T15:22:44.430Z,93.90
2023-03-15T15:26:28.684Z,94.40
2023-03-15T15:30:16.412Z,94.10
2023-03-15T15:33:58.465Z,94.10
2023-03-15T15:37:40.861Z,94.20
2023-03-15T15:41:29.935Z,94.20
2023-03-15T15:45:16.647Z,94.20
2023-03-15T15:48:58.852Z,94.20
2023-03-15T15:52:47.280Z,94.10
2023-03-15T15:56:44.167Z,94.10
2023-03-15T16:00:27.960Z,94.10
2023-03-15T16:04:10.030Z,94.10
2023-03-15T16:07:52.965Z,94.50
2023-03-15T16:11:35.066Z,94.20
2023-03-15T16:15:17.884Z,94.20
2023-03-15T16:18:59.604Z,94.10
2023-03-15T16:22:49.469Z,94.10
2023-03-15T16:26:31.440Z,94.20
2023-03-15T16:30:27.900Z,94.00
2023-03-15T16:34:11.792Z,94.00
2023-03-15T16:37:56.749Z,93.90
2023-03-15T16:41:38.625Z,93.90
2023-03-15T16:45:21.346Z,94.00
2023-03-15T16:49:03.882Z,94.00
2023-03-15T16:52:49.609Z,93.90
2023-03-15T16:56:35.294Z,93.90
2023-03-15T17:00:18.583Z,93.80
2023-03-15T17:04:03.473Z,93.80
2023-03-15T17:07:51.119Z,93.80
2023-03-15T17:11:32.935Z,93.80
2023-03-15T17:15:16.570Z,93.80
2023-03-15T17:18:58.724Z,93.70
2023-03-15T17:22:42.058Z,93.80
2023-03-15T17:26:24.468Z,93.80
2023-03-15T17:30:27.974Z,93.80
2023-03-15T17:34:09.897Z,94.00
2023-03-15T17:37:51.674Z,94.10
2023-03-15T17:41:37.127Z,94.00
2023-03-15T17:45:29.923Z,94.10
2023-03-15T17:49:13.338Z,94.70
2023-03-15T17:52:58.011Z,94.10
2023-03-15T17:56:39.728Z,94.30
2023-03-15T18:00:22.521Z,94.30
2023-03-15T18:04:04.705Z,94.40
2023-03-15T18:07:58.264Z,94.40
2023-03-15T18:11:42.509Z,94.50
2023-03-15T18:15:24.312Z,94.50
2023-03-15T18:19:06.144Z,94.70
2023-03-15T18:22:48.582Z,94.50
2023-03-15T18:26:30.524Z,94.50
2023-03-15T18:30:14.929Z,94.50
2023-03-15T18:33:56.654Z,94.70
2023-03-15T18:37:39.371Z,94.60
2023-03-15T18:41:24.995Z,94.70
2023-03-15T18:45:07.997Z,94.90
2023-03-15T18:48:50.330Z,94.80
2023-03-15T18:52:32.052Z,94.90
2023-03-15T18:56:19.493Z,94.90
2023-03-15T19:00:01.240Z,95.20
2023-03-15T19:03:44.574Z,95.00
2023-03-15T19:07:28.017Z,95.10
2023-03-15T19:11:11.287Z,95.10
2023-03-15T19:14:53.045Z,95.50
2023-03-15T19:18:35.092Z,95.20
2023-03-15T19:22:17.349Z,95.30
2023-03-15T19:25:59.143Z,95.30
2023-03-15T19:29:40.897Z,95.70
2023-03-15T19:33:25.357Z,95.80
2023-03-15T19:37:07.427Z,95.50
2023-03-15T19:40:50.404Z,95.60
2023-03-15T19:44:32.367Z,95.60
2023-03-15T19:48:16.426Z,95.60
2023-03-15T19:51:58.293Z,95.70
2023-03-15T19:55:40.093Z,95.70
2023-03-15T19:59:21.964Z,95.80
2023-03-15T20:03:04.481Z,95.80
2023-03-15T20:06:46.183Z,95.90
2023-03-15T20:10:27.900Z,96.00
2023-03-15T20:14:09.667Z,95.90
2023-03-15T20:17:51.972Z,96.00
2023-03-15T20:21:33.928Z,96.10
2023-03-15T20:25:18.070Z,96.10
2023-03-15T20:28:59.859Z,96.30
2023-03-15T20:32:42.108Z,96.30
2023-03-15T20:36:23.967Z,96.30
2023-03-15T20:40:09.110Z,96.30
2023-03-15T20:43:50.972Z,96.40
2023-03-15T20:47:33.016Z,96.40
2023-03-15T20:51:14.988Z,96.40
2023-03-15T20:54:56.752Z,96.50
2023-03-15T20:58:38.464Z,96.60
2023-03-15T21:02:20.424Z,96.60
2023-03-15T21:06:06.339Z,96.60
2023-03-15T21:09:48.096Z,96.90
2023-03-15T21:13:30.142Z,96.80
2023-03-15T21:17:14.318Z,96.80
2023-03-15T21:20:58.859Z,96.80
2023-03-15T21:24:54.524Z,96.90
2023-03-15T21:28:37.511Z,96.90
2023-03-15T21:32:19.266Z,96.90
2023-03-15T21:36:02.177Z,97.00
2023-03-15T21:39:43.879Z,97.00
2023-03-15T21:43:31.572Z,97.00
2023-03-15T21:47:14.583Z,97.30
2023-03-15T21:50:56.830Z,97.10
2023-03-15T21:54:38.819Z,97.20
2023-03-15T21:58:20.568Z,97.20
2023-03-15T22:02:02.467Z,97.30
2023-03-15T22:05:46.772Z,97.30
2023-03-15T22:09:28.600Z,97.50
2023-03-15T22:13:10.428Z,97.40
2023-03-15T22:16:52.310Z,97.50
2023-03-15T22:20:34.768Z,97.50
2023-03-15T22:24:16.893Z,97.60
2023-03-15T22:27:58.775Z,97.70
2023-03-15T22:31:40.526Z,98.00
2023-03-15T22:35:22.735Z,97.70
2023-03-15T22:39:04.844Z,97.80
2023-03-15T22:42:49.518Z,97.90
2023-03-15T22:46:34.915Z,97.90
2023-03-15T22:50:17.329Z,98.00
2023-03-15T22:53:59.112Z,98.00
2023-03-15T22:57:40.866Z,98.00
2023-03-15T23:01:22.751Z,98.10
2023-03-15T23:05:05.058Z,98.10
2023-03-15T23:08:46.878Z,98.10
2023-03-15T23:12:35.852Z,98.20
2023-03-15T23:16:18.975Z,98.20
2023-03-15T23:20:00.683Z,98.20
2023-03-15T23:23:45.247Z,98.30
2023-03-15T23:27:27.504Z,98.20
2023-03-15T23:31:09.466Z,98.20
2023-03-15T23:34:51.936Z,98.30
2023-03-15T23:38:34.995Z,98.30
2023-03-15T23:42:16.737Z,98.30
2023-03-15T23:46:00.700Z,98.30
2023-03-15T23:49:43.550Z,98.40
2023-03-15T23:53:26.684Z,98.30
2023-03-15T23:57:14.028Z,98.40
